Time,TemperatureF,DewpointF,PressureIn,WindDirection,WindDirectionDegrees,WindSpeedMPH,WindSpeedGustMPH,Humidity,HourlyPrecipIn,Conditions,Clouds,dailyrainin,SoftwareType,DateUTC
2015-02-27 00:12:00,53.1,44.3,29.83,South,180,0.0,-999.0,72,-99.99,,,0.00,Acu-Link.com,2015-02-27 08:12:00,
2015-02-27 00:27:00,52.7,44.6,29.82,NW,315,1.7,-999.0,74,-99.99,,,0.00,Acu-Link.com,2015-02-27 08:27:00,
2015-02-27 00:42:00,52.7,44.6,29.83,NW,315,0.0,-999.0,74,-99.99,,,0.00,Acu-Link.com,2015-02-27 08:42:00,
2015-02-27 00:57:00,53.1,45.0,29.83,WSW,247,2.7,-999.0,74,-99.99,,,0.00,Acu-Link.com,2015-02-27 08:57:00,
2015-02-27 01:13:00,52.9,45.2,29.83,WNW,292,2.7,-999.0,75,-99.99,,,0.00,Acu-Link.com,2015-02-27 09:13:00,
2015-02-27 01:28:00,53.1,45.4,29.82,West,270,1.7,-999.0,75,-99.99,,,0.00,Acu-Link.com,2015-02-27 09:28:00,
2015-02-27 01:43:00,52.7,45.0,29.82,South,180,1.1,-999.0,75,-99.99,,,0.00,Acu-Link.com,2015-02-27 09:43:00,
2015-02-27 01:58:00,51.6,44.3,29.82,ENE,67,0.0,-999.0,76,-99.99,,,0.00,Acu-Link.com,2015-02-27 09:58:00,
2015-02-27 02:14:00,51.1,44.8,29.82,South,180,0.0,-999.0,79,-99.99,,,0.00,Acu-Link.com,2015-02-27 10:14:00,
2015-02-27 02:29:00,50.4,44.5,29.81,West,270,0.0,-999.0,80,-99.99,,,0.00,Acu-Link.com,2015-02-27 10:29:00,
2015-02-27 02:44:00,50.0,44.4,29.81,West,270,0.0,-999.0,81,-99.99,,,0.00,Acu-Link.com,2015-02-27 10:44:00,
2015-02-27 02:59:00,49.3,43.7,29.80,North,0,0.0,-999.0,81,-99.99,,,0.00,Acu-Link.com,2015-02-27 10:59:00,
2015-02-27 03:15:00,48.6,43.4,29.80,NW,315,0.0,-999.0,82,-99.99,,,0.00,Acu-Link.com,2015-02-27 11:15:00,
2015-02-27 03:30:00,48.2,43.0,29.79,WNW,292,0.0,-999.0,82,-99.99,,,0.00,Acu-Link.com,2015-02-27 11:30:00,
2015-02-27 03:45:00,47.7,42.8,29.80,NW,315,0.0,-999.0,83,-99.99,,,0.00,Acu-Link.com,2015-02-27 11:45:00,
2015-02-27 04:01:00,47.1,42.2,29.80,West,270,0.0,-999.0,83,-99.99,,,0.00,Acu-Link.com,2015-02-27 12:01:00,
2015-02-27 04:16:00,47.5,43.5,29.80,North,0,0.0,-999.0,86,-99.99,,,0.00,Acu-Link.com,2015-02-27 12:16:00,
2015-02-27 04:31:00,47.1,43.1,29.80,West,270,0.0,-999.0,86,-99.99,,,0.00,Acu-Link.com,2015-02-27 12:31:00,
2015-02-27 04:46:00,46.9,42.6,29.80,NW,315,0.0,-999.0,85,-99.99,,,0.00,Acu-Link.com,2015-02-27 12:46:00,
2015-02-27 05:01:00,46.6,42.3,29.80,NW,315,0.0,-999.0,85,-99.99,,,0.00,Acu-Link.com,2015-02-27 13:01:00,
2015-02-27 05:17:00,46.4,42.4,29.80,NNE,22,0.0,-999.0,86,-99.99,,,0.00,Acu-Link.com,2015-02-27 13:17:00,
2015-02-27 05:32:00,46.2,42.5,29.80,NNE,22,0.0,-999.0,87,-99.99,,,0.00,Acu-Link.com,2015-02-27 13:32:00,
2015-02-27 05:47:00,46.6,43.2,29.81,West,270,0.0,-999.0,88,-99.99,,,0.00,Acu-Link.com,2015-02-27 13:47:00,
2015-02-27 06:02:00,46.6,43.2,29.81,NE,45,0.0,-999.0,88,-99.99,,,0.00,Acu-Link.com,2015-02-27 14:02:00,